This is the latest recevied weather packets stored in our database for station/object KO5MO-11. If no packets are shown the sender has not sent any weather packets the latest 10 day(s).
| Time | Temp. | Humidity | Pressure | Rain* | Wind** | Luminosity | Snow |
|---|---|---|---|---|---|---|---|
| 1777552236 | 25.56° C | 33% | 1008.3 hPa | - | - | 782 W/m² | - |
| 1777551636 | 26.11° C | 32% | 1008.3 hPa | - | - | 795 W/m² | - |
| 1777551036 | 25° C | 34% | 1008.3 hPa | - | - | 778 W/m² | - |
| 1777550436 | 24.44° C | 34% | 1008.2 hPa | - | - | 769 W/m² | - |
| 1777549836 | 25° C | 35% | 1008.2 hPa | - | - | 770 W/m² | - |
| 1777549236 | 25° C | 34% | 1008.2 hPa | - | - | 778 W/m² | - |
| 1777548636 | 25° C | 33% | 1008.1 hPa | - | - | 774 W/m² | - |
| 1777548036 | 25° C | 34% | 1008.1 hPa | - | - | 777 W/m² | - |
| 1777547435 | 26.11° C | 32% | 1008.1 hPa | - | - | 795 W/m² | - |
| 1777546836 | 24.44° C | 34% | 1008.2 hPa | - | - | 769 W/m² | - |
| 1777546236 | 25° C | 35% | 1008.3 hPa | - | - | 772 W/m² | - |
| 1777545636 | 25° C | 34% | 1008.5 hPa | - | - | 775 W/m² | - |
| 1777545036 | 25° C | 34% | 1008.4 hPa | - | - | 772 W/m² | - |
| 1777544436 | 25° C | 34% | 1008.4 hPa | - | - | 772 W/m² | - |
| 1777543836 | 25° C | 34% | 1008.5 hPa | - | - | 777 W/m² | - |
| 1777543236 | 25° C | 34% | 1008.5 hPa | - | - | 776 W/m² | - |
| 1777542636 | 25° C | 34% | 1008.7 hPa | - | - | 775 W/m² | - |
| 1777542036 | 26.11° C | 33% | 1008.6 hPa | - | - | 791 W/m² | - |
| 1777541436 | 24.44° C | 34% | 1008.5 hPa | - | - | 767 W/m² | - |
| 1777540836 | 25° C | 35% | 1008.6 hPa | - | - | 770 W/m² | - |
| 1777540236 | 25° C | 34% | 1008.9 hPa | - | - | 771 W/m² | - |
| 1777539635 | 25.56° C | 34% | 1009 hPa | - | - | 783 W/m² | - |
| 1777539035 | 26.11° C | 33% | 1009.1 hPa | - | - | 796 W/m² | - |
| 1777538436 | 24.44° C | 35% | 1009.3 hPa | - | - | 765 W/m² | - |
| 1777537836 | 24.44° C | 34% | 1009.2 hPa | - | - | 769 W/m² | - |
* Rain since midnight (hover to see other rain measurements)
** Current wind speed in m/s (hover to see current wind gust speed)